Promontory, Utah
Current Conditions -  °F | °C
As of 9:35 AM on Tuesday 21 Oct 2014 (Local Time) from KBMC Reporting Station
Overcast Overcast  
Wind Chill: 15°   Ceiling: 7500
Heat Index: 15°   Visibility: 10mi
Dew Point:   Wind: 7mph
Humidity: 55%   Direction: 190°S
Pressure: 29.93"   Gusts: NA
Location:  41.5038°N, 112.48°W
Report Text: KBMC 211535Z AUTO 19006KT 10SM BKN075 OVC100 15/06 A2993 RMK AO1 T01520063
Loading
Personal Weather Stations






























Interactive Weather Map
Tropical Storm Tracking
New forecast layout! Learn more

10-Day Weather Forecast

Advertisements
Track Severe Weather on mobile